createdAt,value
2018-11-20T00:01:46.142Z,16.82
2018-11-20T00:04:18.512Z,16.45
2018-11-20T00:06:37.816Z,16.40
2018-11-20T00:09:13.530Z,15.98
2018-11-20T00:11:43.370Z,15.63
2018-11-20T00:14:05.590Z,17.17
2018-11-20T00:16:35.391Z,17.32
2018-11-20T00:18:54.307Z,16.40
2018-11-20T00:21:30.060Z,17.15
2018-11-20T00:23:52.727Z,15.20
2018-11-20T00:26:13.611Z,15.58
2018-11-20T00:28:32.895Z,16.07
2018-11-20T00:30:55.132Z,16.62
2018-11-20T00:33:17.748Z,16.73
2018-11-20T00:35:41.438Z,17.05
2018-11-20T00:38:03.679Z,15.95
2018-11-20T00:40:36.152Z,17.35
2018-11-20T00:42:58.501Z,17.77
2018-11-20T00:45:40.354Z,16.75
2018-11-20T00:48:02.423Z,16.50
2018-11-20T00:50:25.106Z,16.30
2018-11-20T00:52:47.423Z,16.17
2018-11-20T00:55:20.092Z,16.52
2018-11-20T00:57:43.806Z,16.82
2018-11-20T01:00:19.745Z,16.42
2018-11-20T01:02:55.364Z,17.30
2018-11-20T01:05:18.631Z,16.90
2018-11-20T01:07:42.349Z,16.65
2018-11-20T01:10:02.900Z,16.70
2018-11-20T01:12:26.612Z,16.05
2018-11-20T01:14:49.097Z,15.55
2018-11-20T01:17:15.946Z,16.12
2018-11-20T01:19:39.674Z,17.20
2018-11-20T01:21:58.415Z,17.10
2018-11-20T01:24:20.658Z,18.00
2018-11-20T01:26:38.682Z,17.60
2018-11-20T01:29:02.783Z,17.67
2018-11-20T01:31:25.013Z,17.75
2018-11-20T01:33:58.747Z,17.52
2018-11-20T01:36:34.482Z,18.02
2018-11-20T01:39:10.493Z,17.48
2018-11-20T01:41:36.929Z,17.52
2018-11-20T01:44:09.834Z,18.32
2018-11-20T01:46:24.917Z,17.85
2018-11-20T01:48:46.158Z,18.07
2018-11-20T01:51:18.710Z,18.57
2018-11-20T01:53:42.370Z,17.92
2018-11-20T01:56:04.099Z,19.20
2018-11-20T01:58:29.068Z,18.25
2018-11-20T02:00:58.679Z,18.02
2018-11-20T02:03:15.732Z,20.08
2018-11-20T02:05:38.245Z,18.40
2018-11-20T02:08:00.627Z,20.43
2018-11-20T02:10:39.404Z,19.15
2018-11-20T02:13:34.966Z,20.37
2018-11-20T02:15:53.718Z,19.70
2018-11-20T02:18:19.128Z,19.20
2018-11-20T02:20:53.476Z,19.45
2018-11-20T02:23:32.414Z,20.25
2018-11-20T02:25:50.784Z,19.87
2018-11-20T02:28:13.705Z,19.55
2018-11-20T02:30:36.425Z,19.25
2018-11-20T02:32:54.390Z,19.75
2018-11-20T02:35:17.031Z,20.60
2018-11-20T02:37:39.513Z,20.37
2018-11-20T02:40:03.447Z,20.12
2018-11-20T02:42:27.200Z,21.17
2018-11-20T02:44:53.644Z,21.10
2018-11-20T02:47:12.200Z,20.43
2018-11-20T02:49:45.551Z,21.35
2018-11-20T02:52:11.416Z,20.17
2018-11-20T02:54:35.093Z,21.35
2018-11-20T02:56:57.449Z,20.02
2018-11-20T02:59:24.038Z,20.68
2018-11-20T03:01:53.363Z,20.50
2018-11-20T03:04:19.974Z,21.35
2018-11-20T03:06:47.382Z,21.60
2018-11-20T03:09:11.169Z,20.95
2018-11-20T03:11:37.569Z,22.58
2018-11-20T03:13:56.329Z,22.70
2018-11-20T03:16:21.079Z,22.15
2018-11-20T03:18:41.010Z,22.00
2018-11-20T03:21:10.523Z,21.95
2018-11-20T03:23:33.065Z,20.88
2018-11-20T03:26:09.548Z,22.15
2018-11-20T03:28:21.937Z,22.25
2018-11-20T03:31:30.282Z,21.25
2018-11-20T03:33:52.846Z,21.17
2018-11-20T03:36:15.612Z,21.57
2018-11-20T03:38:45.352Z,22.07
2018-11-20T03:41:06.134Z,21.93
2018-11-20T03:43:21.966Z,20.65
2018-11-20T03:45:40.923Z,22.13
2018-11-20T03:48:03.363Z,21.70
2018-11-20T03:50:29.696Z,21.00
2018-11-20T03:52:51.471Z,21.87
2018-11-20T03:55:09.887Z,21.75
2018-11-20T03:57:35.941Z,22.27
2018-11-20T03:59:58.561Z,21.27
2018-11-20T04:02:25.225Z,21.62
2018-11-20T04:04:48.997Z,22.60
2018-11-20T04:07:24.955Z,22.13
2018-11-20T04:09:47.572Z,22.00
2018-11-20T04:12:11.309Z,20.77
2018-11-20T04:14:46.021Z,23.35
2018-11-20T04:17:24.919Z,22.48
2018-11-20T04:19:51.564Z,23.35
2018-11-20T04:22:15.362Z,21.45
2018-11-20T04:24:39.030Z,21.85
2018-11-20T04:27:08.818Z,22.22
2018-11-20T04:29:22.349Z,21.82
2018-11-20T04:32:17.495Z,23.18
2018-11-20T04:34:39.612Z,22.35
2018-11-20T04:37:12.119Z,22.35
2018-11-20T04:39:34.705Z,21.95
2018-11-20T04:41:58.241Z,23.05
2018-11-20T04:44:28.594Z,22.07
2018-11-20T04:46:50.904Z,22.07
2018-11-20T04:49:26.412Z,23.02
2018-11-20T04:52:05.238Z,21.52
2018-11-20T04:54:34.704Z,21.45
2018-11-20T04:56:53.448Z,21.48
2018-11-20T04:59:18.075Z,23.52
2018-11-20T05:01:41.826Z,22.75
2018-11-20T05:04:09.366Z,22.40
2018-11-20T05:06:42.426Z,23.02
2018-11-20T05:09:21.399Z,23.07
2018-11-20T05:11:54.088Z,21.48
2018-11-20T05:14:29.757Z,23.10
2018-11-20T05:16:52.106Z,22.52
2018-11-20T05:19:20.727Z,22.37
2018-11-20T05:21:40.307Z,23.65
2018-11-20T05:24:16.274Z,22.58
2018-11-20T05:26:38.656Z,22.27
2018-11-20T05:28:59.003Z,22.42
2018-11-20T05:31:28.632Z,22.82
2018-11-20T05:33:45.623Z,22.55
2018-11-20T05:36:15.395Z,24.43
2018-11-20T05:38:30.053Z,22.82
2018-11-20T05:41:00.636Z,21.70
2018-11-20T05:43:24.185Z,22.95
2018-11-20T05:45:50.463Z,22.32
2018-11-20T05:48:14.107Z,21.10
2018-11-20T05:50:36.621Z,22.98
2018-11-20T05:52:59.603Z,23.15
2018-11-20T05:55:26.477Z,23.00
2018-11-20T05:57:51.586Z,25.60
2018-11-20T06:00:19.602Z,21.90
2018-11-20T06:02:41.880Z,21.07
2018-11-20T06:05:15.881Z,21.82
2018-11-20T06:07:28.756Z,23.42
2018-11-20T06:10:01.826Z,25.13
2018-11-20T06:12:24.539Z,22.73
2018-11-20T06:14:54.474Z,22.25
2018-11-20T06:17:12.765Z,23.40
2018-11-20T06:19:39.389Z,20.85
2018-11-20T06:22:07.020Z,23.20
2018-11-20T06:24:49.182Z,22.22
2018-11-20T06:27:15.708Z,22.02
2018-11-20T06:29:51.614Z,21.62
2018-11-20T06:32:07.344Z,23.52
2018-11-20T06:34:28.634Z,21.50
2018-11-20T06:37:04.744Z,20.30
2018-11-20T06:39:30.297Z,20.75
2018-11-20T06:41:52.800Z,25.75
2018-11-20T06:44:15.438Z,23.77
2018-11-20T06:46:38.032Z,22.58
2018-11-20T06:49:02.060Z,23.55
2018-11-20T06:51:28.880Z,21.68
2018-11-20T06:53:52.763Z,24.35
2018-11-20T06:56:19.546Z,22.13
2018-11-20T06:58:58.395Z,20.45
2018-11-20T07:01:20.986Z,20.72
2018-11-20T07:03:44.850Z,21.90
2018-11-20T07:06:07.222Z,22.20
2018-11-20T07:08:30.927Z,20.72
2018-11-20T07:10:48.612Z,21.50
2018-11-20T07:13:11.656Z,21.07
2018-11-20T07:15:34.436Z,21.55
2018-11-20T07:17:53.788Z,22.13
2018-11-20T07:20:17.565Z,20.95
2018-11-20T07:22:44.344Z,21.75
2018-11-20T07:25:17.079Z,21.12
2018-11-20T07:27:39.599Z,20.23
2018-11-20T07:30:03.552Z,20.10
2018-11-20T07:32:26.503Z,21.15
2018-11-20T07:34:50.720Z,20.82
2018-11-20T07:37:05.525Z,20.30
2018-11-20T07:39:41.222Z,21.07
2018-11-20T07:42:03.517Z,20.17
2018-11-20T07:44:24.463Z,20.55
2018-11-20T07:46:58.458Z,19.55
2018-11-20T07:49:21.280Z,21.80
2018-11-20T07:51:46.562Z,20.75
2018-11-20T07:54:06.629Z,19.55
2018-11-20T07:56:31.191Z,20.05
2018-11-20T07:59:02.463Z,21.07
2018-11-20T08:01:44.395Z,21.10
2018-11-20T08:04:06.740Z,23.87
2018-11-20T08:06:29.210Z,22.77
2018-11-20T08:08:52.994Z,20.95
2018-11-20T08:11:04.553Z,19.40
2018-11-20T08:13:33.017Z,20.30
2018-11-20T08:15:55.704Z,19.67
2018-11-20T08:18:11.375Z,19.73
2018-11-20T08:20:35.130Z,21.00
2018-11-20T08:22:57.518Z,19.37
2018-11-20T08:25:20.014Z,19.70
2018-11-20T08:27:55.708Z,20.48
2018-11-20T08:30:37.756Z,20.90
2018-11-20T08:33:13.895Z,19.35
2018-11-20T08:35:38.767Z,20.17
2018-11-20T08:37:52.160Z,19.42
2018-11-20T08:40:31.244Z,19.67
2018-11-20T08:42:53.836Z,19.92
2018-11-20T08:45:16.274Z,20.43
2018-11-20T08:47:46.059Z,18.80
2018-11-20T08:50:21.801Z,17.92
2018-11-20T08:52:48.754Z,21.82
2018-11-20T08:55:11.422Z,20.90
2018-11-20T08:57:50.283Z,18.80
2018-11-20T09:00:14.029Z,17.65
2018-11-20T09:02:38.010Z,17.80
2018-11-20T09:05:10.669Z,18.73
2018-11-20T09:07:46.087Z,18.45
2018-11-20T09:10:13.469Z,17.60
2018-11-20T09:12:33.553Z,18.05
2018-11-20T09:15:48.862Z,18.30
2018-11-20T09:18:10.307Z,17.73
2018-11-20T09:20:45.541Z,17.37
2018-11-20T09:22:57.102Z,17.70
2018-11-20T09:25:32.233Z,18.05
2018-11-20T09:28:01.243Z,19.77
2018-11-20T09:30:23.852Z,18.90
2018-11-20T09:32:44.904Z,17.07
2018-11-20T09:35:07.637Z,18.37
2018-11-20T09:37:45.734Z,18.35
2018-11-20T09:40:44.444Z,17.32
2018-11-20T09:43:01.725Z,19.05
2018-11-20T09:45:42.547Z,17.80
2018-11-20T09:48:08.088Z,18.07
2018-11-20T09:50:22.969Z,17.95
2018-11-20T09:52:45.997Z,16.82
2018-11-20T09:55:08.846Z,17.57
2018-11-20T09:57:30.555Z,17.90
2018-11-20T09:59:56.279Z,16.42
2018-11-20T10:02:17.889Z,17.07
2018-11-20T10:04:40.893Z,17.35
2018-11-20T10:07:03.390Z,17.20
2018-11-20T10:09:34.956Z,16.52
2018-11-20T10:11:58.211Z,17.45
2018-11-20T10:14:19.836Z,16.65
2018-11-20T10:16:41.625Z,17.17
2018-11-20T10:19:07.055Z,17.30
2018-11-20T10:21:41.812Z,18.80
2018-11-20T10:24:03.452Z,16.87
2018-11-20T10:26:35.273Z,17.17
2018-11-20T10:28:55.231Z,17.23
2018-11-20T10:31:36.328Z,16.93
2018-11-20T10:33:57.990Z,18.23
2018-11-20T10:36:20.892Z,18.10
2018-11-20T10:38:42.512Z,17.27
2018-11-20T10:40:55.021Z,16.25
2018-11-20T10:43:23.693Z,16.35
2018-11-20T10:45:58.364Z,16.85
2018-11-20T10:48:19.753Z,18.00
2018-11-20T10:50:41.751Z,16.70
2018-11-20T10:53:04.676Z,17.00
2018-11-20T10:55:18.965Z,17.00
2018-11-20T10:57:57.149Z,17.73
2018-11-20T11:00:22.767Z,17.05
2018-11-20T11:02:44.828Z,16.35
2018-11-20T11:05:13.628Z,15.85
2018-11-20T11:07:52.109Z,15.58
2018-11-20T11:10:00.046Z,16.42
2018-11-20T11:12:17.673Z,17.02
2018-11-20T11:14:39.889Z,15.88
2018-11-20T11:17:11.756Z,16.15
2018-11-20T11:19:37.884Z,15.88
2018-11-20T11:22:06.739Z,16.60
2018-11-20T11:24:28.737Z,17.02
2018-11-20T11:26:51.752Z,16.90
2018-11-20T11:29:23.820Z,18.42
2018-11-20T11:31:46.762Z,17.10
2018-11-20T11:34:17.791Z,18.42
2018-11-20T11:36:59.738Z,18.45
2018-11-20T11:39:24.408Z,17.73
2018-11-20T11:41:47.344Z,19.15
2018-11-20T11:44:09.068Z,18.77
2018-11-20T11:46:46.027Z,17.98
2018-11-20T11:49:07.943Z,18.90
2018-11-20T11:51:41.474Z,18.12
2018-11-20T11:54:06.457Z,16.82
2018-11-20T11:56:36.332Z,17.85
2018-11-20T11:58:50.913Z,18.23
2018-11-20T12:01:12.868Z,19.10
2018-11-20T12:03:38.456Z,18.37
2018-11-20T12:06:13.300Z,17.40
2018-11-20T12:08:39.120Z,19.10
2018-11-20T12:10:54.014Z,19.80
2018-11-20T12:13:23.111Z,19.07
2018-11-20T12:15:45.038Z,19.82
2018-11-20T12:18:10.737Z,19.45
2018-11-20T12:20:28.878Z,19.40
2018-11-20T12:22:50.698Z,19.62
2018-11-20T12:25:13.647Z,21.12
2018-11-20T12:27:49.097Z,19.40
2018-11-20T12:30:10.127Z,18.30
2018-11-20T12:32:52.306Z,20.00
2018-11-20T12:35:33.155Z,18.45
2018-11-20T12:37:59.346Z,19.70
2018-11-20T12:40:23.236Z,19.70
2018-11-20T12:42:44.978Z,19.85
2018-11-20T12:45:15.610Z,19.23
2018-11-20T12:47:35.189Z,20.37
2018-11-20T12:49:56.838Z,19.23
2018-11-20T12:52:34.914Z,19.40
2018-11-20T12:54:57.340Z,19.30
2018-11-20T12:57:18.784Z,20.05
2018-11-20T12:59:41.527Z,20.60
2018-11-20T13:02:16.548Z,19.85
2018-11-20T13:04:44.204Z,18.40
2018-11-20T13:07:06.066Z,20.32
2018-11-20T13:09:29.332Z,20.15
2018-11-20T13:11:51.041Z,20.15
2018-11-20T13:14:11.704Z,20.00
2018-11-20T13:16:27.332Z,19.02
2018-11-20T13:18:54.289Z,19.55
2018-11-20T13:21:19.452Z,20.25
2018-11-20T13:23:42.609Z,19.65
2018-11-20T13:25:58.845Z,19.92
2018-11-20T13:28:21.845Z,19.40
2018-11-20T13:30:43.339Z,19.75
2018-11-20T13:33:05.148Z,19.20
2018-11-20T13:35:27.539Z,20.25
2018-11-20T13:38:05.811Z,19.27
2018-11-20T13:41:01.743Z,19.07
2018-11-20T13:43:22.420Z,18.25
2018-11-20T13:45:48.109Z,20.68
2018-11-20T13:48:12.618Z,20.20
2018-11-20T13:50:41.119Z,19.70
2018-11-20T13:53:12.997Z,19.17
2018-11-20T13:55:36.000Z,18.95
2018-11-20T13:57:49.054Z,19.30
2018-11-20T14:00:10.667Z,17.35
2018-11-20T14:02:32.599Z,18.52
2018-11-20T14:05:07.542Z,17.00
2018-11-20T14:07:39.666Z,16.62
2018-11-20T14:10:02.643Z,17.50
2018-11-20T14:12:28.771Z,18.37
2018-11-20T14:14:51.800Z,18.05
2018-11-20T14:17:14.841Z,18.65
2018-11-20T14:19:42.678Z,16.82
2018-11-20T14:22:05.052Z,18.50
2018-11-20T14:24:29.849Z,16.97
2018-11-20T14:26:59.396Z,17.60
2018-11-20T14:29:21.215Z,16.82
2018-11-20T14:31:49.804Z,17.17
2018-11-20T14:34:15.771Z,16.15
2018-11-20T14:36:50.650Z,17.75
2018-11-20T14:39:16.500Z,15.35
2018-11-20T14:41:37.581Z,16.93
2018-11-20T14:44:00.627Z,16.42
2018-11-20T14:46:14.700Z,16.30
2018-11-20T14:48:37.812Z,16.77
2018-11-20T14:51:03.459Z,16.02
2018-11-20T14:53:21.455Z,14.85
2018-11-20T14:55:43.196Z,15.20
2018-11-20T14:58:05.136Z,15.98
2018-11-20T15:00:31.025Z,15.88
2018-11-20T15:02:52.987Z,15.58
2018-11-20T15:05:18.267Z,16.62
2018-11-20T15:07:39.998Z,15.83
2018-11-20T15:10:01.689Z,16.15
2018-11-20T15:12:23.699Z,16.35
2018-11-20T15:14:45.455Z,16.40
2018-11-20T15:17:23.387Z,17.32
2018-11-20T15:19:44.593Z,15.98
2018-11-20T15:22:06.146Z,16.15
2018-11-20T15:24:28.018Z,17.10
2018-11-20T15:26:59.382Z,17.05
2018-11-20T15:29:21.453Z,17.25
2018-11-20T15:31:43.317Z,17.02
2018-11-20T15:34:03.924Z,17.10
2018-11-20T15:36:29.448Z,17.55
2018-11-20T15:38:58.324Z,18.20
2018-11-20T15:41:21.271Z,17.15
2018-11-20T15:43:59.225Z,17.60
2018-11-20T15:46:28.223Z,18.60
2018-11-20T15:48:51.286Z,16.55
2018-11-20T15:51:12.916Z,18.12
2018-11-20T15:53:39.193Z,18.82
2018-11-20T15:56:02.143Z,17.75
2018-11-20T15:58:31.165Z,18.52
2018-11-20T16:00:52.850Z,17.42
2018-11-20T16:03:22.943Z,17.40
2018-11-20T16:05:38.656Z,15.00
2018-11-20T16:08:00.370Z,16.45
2018-11-20T16:10:23.307Z,16.45
2018-11-20T16:12:44.729Z,16.82
2018-11-20T16:15:17.102Z,16.30
2018-11-20T16:17:58.182Z,17.82
2018-11-20T16:20:23.969Z,16.90
2018-11-20T16:22:53.647Z,16.50
2018-11-20T16:25:28.958Z,16.82
2018-11-20T16:27:50.706Z,18.17
2018-11-20T16:30:22.645Z,16.85
2018-11-20T16:32:39.661Z,17.37
2018-11-20T16:35:05.398Z,18.17
2018-11-20T16:37:31.133Z,16.73
2018-11-20T16:40:09.365Z,18.00
2018-11-20T16:42:41.546Z,18.62
2018-11-20T16:45:03.267Z,18.27
2018-11-20T16:47:30.363Z,18.90
2018-11-20T16:50:02.519Z,19.37
2018-11-20T16:52:24.177Z,19.00
2018-11-20T16:54:36.364Z,19.42
2018-11-20T16:57:14.229Z,20.50
2018-11-20T16:59:52.475Z,19.65
2018-11-20T17:02:18.048Z,18.55
2018-11-20T17:04:49.849Z,19.98
2018-11-20T17:07:11.613Z,19.40
2018-11-20T17:09:30.637Z,18.35
2018-11-20T17:11:59.738Z,18.48
2018-11-20T17:14:25.551Z,18.20
2018-11-20T17:16:41.750Z,18.85
2018-11-20T17:19:03.429Z,18.65
2018-11-20T17:21:41.505Z,17.77
2018-11-20T17:24:03.752Z,17.95
2018-11-20T17:26:24.747Z,18.00
2018-11-20T17:28:49.611Z,18.35
2018-11-20T17:31:08.437Z,18.77
2018-11-20T17:33:46.572Z,17.90
2018-11-20T17:36:08.397Z,18.52
2018-11-20T17:38:30.519Z,17.30
2018-11-20T17:41:05.324Z,17.85
2018-11-20T17:43:28.312Z,20.20
2018-11-20T17:45:49.978Z,18.32
2018-11-20T17:48:11.792Z,18.45
2018-11-20T17:50:33.430Z,18.50
2018-11-20T17:52:59.166Z,18.25
2018-11-20T17:55:34.516Z,19.32
2018-11-20T17:57:57.133Z,16.55
2018-11-20T18:00:09.921Z,17.48
2018-11-20T18:02:31.507Z,17.23
2018-11-20T18:04:56.980Z,18.75
2018-11-20T18:07:18.546Z,17.62
2018-11-20T18:09:34.340Z,17.52
2018-11-20T18:11:52.359Z,18.40
2018-11-20T18:14:21.132Z,18.40
2018-11-20T18:16:46.716Z,19.10
2018-11-20T18:19:21.892Z,17.82
2018-11-20T18:21:43.857Z,18.40
2018-11-20T18:24:06.081Z,18.87
2018-11-20T18:26:27.518Z,17.42
2018-11-20T18:28:59.376Z,18.40
2018-11-20T18:31:31.652Z,18.05
2018-11-20T18:33:53.246Z,18.20
2018-11-20T18:36:16.268Z,17.85
2018-11-20T18:38:38.187Z,16.48
2018-11-20T18:40:59.877Z,17.98
2018-11-20T18:43:31.848Z,18.57
2018-11-20T18:45:57.850Z,18.02
2018-11-20T18:48:20.269Z,18.25
2018-11-20T18:50:33.252Z,17.00
2018-11-20T18:53:05.261Z,17.10
2018-11-20T18:55:24.582Z,16.50
2018-11-20T18:57:44.493Z,15.93
2018-11-20T19:00:06.099Z,16.65
2018-11-20T19:02:23.222Z,15.13
2018-11-20T19:04:39.545Z,17.15
2018-11-20T19:07:01.423Z,16.48
2018-11-20T19:09:36.247Z,18.12
2018-11-20T19:12:08.180Z,17.73
2018-11-20T19:14:43.319Z,16.73
2018-11-20T19:17:05.144Z,16.75
2018-11-20T19:19:26.511Z,17.07
2018-11-20T19:21:49.439Z,17.90
2018-11-20T19:24:24.959Z,17.35
2018-11-20T19:26:46.475Z,16.40
2018-11-20T19:29:24.709Z,16.20
2018-11-20T19:31:53.458Z,15.23
2018-11-20T19:34:28.569Z,16.50
2018-11-20T19:36:50.015Z,15.58
2018-11-20T19:39:28.531Z,16.73
2018-11-20T19:41:50.156Z,18.48
2018-11-20T19:44:09.930Z,17.95
2018-11-20T19:46:46.197Z,17.85
2018-11-20T19:49:27.479Z,18.87
2018-11-20T19:52:00.544Z,18.67
2018-11-20T19:54:19.394Z,18.98
2018-11-20T19:56:42.330Z,18.00
2018-11-20T19:59:05.407Z,17.82
2018-11-20T20:01:25.994Z,18.27
2018-11-20T20:03:57.805Z,17.40
2018-11-20T20:06:19.503Z,17.82
2018-11-20T20:08:33.055Z,18.65
2018-11-20T20:10:53.912Z,17.55
2018-11-20T20:13:22.859Z,17.07
2018-11-20T20:15:44.704Z,18.10
2018-11-20T20:18:05.834Z,16.75
2018-11-20T20:20:41.052Z,15.88
2018-11-20T20:23:02.798Z,15.00
2018-11-20T20:25:28.872Z,15.65
2018-11-20T20:27:51.828Z,15.98
2018-11-20T20:30:23.491Z,15.45
2018-11-20T20:33:01.486Z,16.05
2018-11-20T20:35:21.464Z,15.68
2018-11-20T20:37:55.919Z,16.27
2018-11-20T20:40:29.628Z,16.35
2018-11-20T20:43:04.997Z,17.00
2018-11-20T20:45:39.867Z,15.43
2018-11-20T20:47:58.230Z,15.63
2018-11-20T20:50:11.982Z,15.83
2018-11-20T20:52:37.937Z,17.65
2018-11-20T20:55:03.856Z,15.83
2018-11-20T20:57:20.227Z,16.10
2018-11-20T20:59:41.970Z,16.25
2018-11-20T21:01:55.785Z,15.55
2018-11-20T21:04:25.087Z,16.10
2018-11-20T21:06:37.873Z,16.05
2018-11-20T21:08:57.064Z,14.95
2018-11-20T21:11:18.480Z,16.07
2018-11-20T21:13:56.528Z,15.98
2018-11-20T21:16:31.463Z,15.15
2018-11-20T21:19:09.799Z,16.12
2018-11-20T21:21:31.624Z,15.78
2018-11-20T21:23:45.352Z,15.63
2018-11-20T21:26:09.904Z,14.93
2018-11-20T21:28:31.617Z,15.88
2018-11-20T21:30:56.089Z,16.52
2018-11-20T21:33:37.170Z,17.02
2018-11-20T21:36:18.732Z,17.40
2018-11-20T21:38:40.657Z,15.60
2018-11-20T21:41:15.556Z,16.60
2018-11-20T21:43:36.898Z,15.13
2018-11-20T21:46:05.541Z,16.27
2018-11-20T21:48:34.679Z,16.67
2018-11-20T21:51:06.621Z,16.95
2018-11-20T21:53:32.647Z,17.65
2018-11-20T21:55:56.000Z,17.85
2018-11-20T21:58:17.489Z,17.67
2018-11-20T22:01:06.280Z,17.52
2018-11-20T22:03:23.816Z,18.12
2018-11-20T22:05:44.544Z,18.45
2018-11-20T22:08:06.089Z,18.12
2018-11-20T22:10:31.780Z,19.50
2018-11-20T22:13:12.953Z,19.98
2018-11-20T22:15:34.809Z,19.00
2018-11-20T22:17:56.576Z,19.23
2018-11-20T22:20:31.440Z,19.65
2018-11-20T22:22:52.969Z,18.52
2018-11-20T22:25:15.877Z,19.73
2018-11-20T22:27:37.631Z,20.68
2018-11-20T22:30:18.861Z,21.45
2018-11-20T22:32:40.285Z,20.75
2018-11-20T22:35:03.224Z,20.57
2018-11-20T22:37:26.201Z,22.13
2018-11-20T22:39:52.084Z,21.70
2018-11-20T22:42:13.578Z,22.17
2018-11-20T22:44:25.279Z,21.93
2018-11-20T22:46:47.202Z,21.42
2018-11-20T22:49:09.172Z,21.90
2018-11-20T22:51:32.083Z,23.67
2018-11-20T22:53:53.731Z,20.43
2018-11-20T22:56:06.311Z,20.35
2018-11-20T22:58:20.686Z,22.45
2018-11-20T23:00:58.861Z,22.65
2018-11-20T23:03:26.052Z,20.35
2018-11-20T23:05:50.423Z,21.77
2018-11-20T23:07:57.840Z,21.33
2018-11-20T23:10:01.674Z,21.23
2018-11-20T23:12:05.647Z,21.42
2018-11-20T23:14:09.490Z,20.57
2018-11-20T23:16:13.339Z,21.17
2018-11-20T23:18:17.209Z,20.68
2018-11-20T23:20:21.037Z,23.18
2018-11-20T23:22:24.884Z,22.70
2018-11-20T23:24:28.734Z,23.75
2018-11-20T23:26:32.592Z,22.90
2018-11-20T23:28:36.504Z,22.77
2018-11-20T23:30:40.378Z,23.25
2018-11-20T23:32:44.215Z,21.95
2018-11-20T23:34:48.108Z,23.12
2018-11-20T23:36:51.990Z,23.18
2018-11-20T23:38:55.821Z,23.52
2018-11-20T23:40:59.728Z,23.05
2018-11-20T23:43:03.645Z,22.52
2018-11-20T23:45:09.996Z,23.25
2018-11-20T23:47:13.899Z,24.20
2018-11-20T23:49:17.807Z,23.00
2018-11-20T23:51:21.660Z,22.85
2018-11-20T23:53:25.565Z,23.07
2018-11-20T23:55:29.442Z,22.58
2018-11-20T23:57:33.373Z,24.40
2018-11-20T23:59:37.385Z,23.52
